Time;durP1;ratioP1;P1;durP2;ratioP2;P2;SDS_P1;SDS_P2;PMS_P1;PMS_P2;Temp;Humidity;BMP_temperature;BMP_pressure;BME280_temperature;BME280_humidity;BME280_pressure;Samples;Min_cycle;Max_cycle;Signal;HPM_P1;HPM_P2
2024/04/01 00:00:38;;;;;;;23.67;19.03;;;15.40;99.90;;;;;;5013007;28;20453;-74
2024/04/01 00:03:05;;;;;;;37.37;21.70;;;15.30;99.90;;;;;;4993499;28;20799;-74
2024/04/01 00:05:32;;;;;;;23.13;20.50;;;15.30;99.90;;;;;;4977696;28;20941;-73
2024/04/01 00:07:59;;;;;;;21.53;18.40;;;15.30;99.90;;;;;;4992476;28;20470;-73
2024/04/01 00:10:28;;;;;;;25.90;21.03;;;15.30;99.90;;;;;;4988970;28;20470;-74
2024/04/01 00:12:53;;;;;;;32.93;22.70;;;15.20;99.90;;;;;;4973963;28;20481;-73
2024/04/01 00:15:22;;;;;;;32.67;21.37;;;15.20;99.90;;;;;;4973160;28;20471;-73
2024/04/01 00:17:48;;;;;;;26.00;20.80;;;15.10;99.90;;;;;;4992965;28;20552;-73
2024/04/01 00:20:15;;;;;;;23.70;19.47;;;15.10;99.90;;;;;;4979248;28;20817;-73
2024/04/01 00:22:41;;;;;;;24.77;21.07;;;15.00;99.90;;;;;;4973496;28;20459;-73
2024/04/01 00:25:08;;;;;;;30.27;21.60;;;15.00;99.90;;;;;;4972965;28;20914;-73
2024/04/01 00:27:35;;;;;;;28.27;20.13;;;15.00;99.90;;;;;;4989236;28;20470;-73
2024/04/01 00:30:05;;;;;;;40.30;21.97;;;15.00;99.90;;;;;;4993089;28;20978;-73
2024/04/01 00:32:32;;;;;;;35.80;21.07;;;15.00;99.90;;;;;;4994287;28;20811;-73
2024/04/01 00:34:59;;;;;;;28.60;21.57;;;14.90;99.90;;;;;;4996792;28;20470;-73
2024/04/01 00:37:25;;;;;;;31.20;21.57;;;14.90;99.90;;;;;;4980773;28;20498;-73
2024/04/01 00:39:52;;;;;;;29.33;22.47;;;14.80;99.90;;;;;;4977186;28;20467;-73
2024/04/01 00:42:18;;;;;;;32.10;22.57;;;14.80;99.90;;;;;;4976723;28;20540;-74
2024/04/01 00:44:49;;;;;;;28.53;20.93;;;14.70;99.90;;;;;;4977117;28;20467;-74
2024/04/01 00:47:15;;;;;;;30.87;22.67;;;14.70;99.90;;;;;;4976968;28;20977;-74
2024/04/01 00:49:42;;;;;;;36.00;23.13;;;14.70;99.90;;;;;;4992473;28;20455;-74
2024/04/01 00:52:08;;;;;;;42.03;24.37;;;14.70;99.90;;;;;;5015934;28;20469;-72
2024/04/01 00:54:35;;;;;;;31.37;22.43;;;14.60;99.90;;;;;;5015411;28;20809;-73
2024/04/01 00:57:02;;;;;;;41.77;24.67;;;14.60;99.90;;;;;;5016031;28;20479;-73
2024/04/01 00:59:29;;;;;;;33.53;24.60;;;14.60;99.90;;;;;;4999793;28;20486;-74
2024/04/01 01:01:57;;;;;;;36.70;22.70;;;14.50;99.90;;;;;;4987667;28;20470;-74
2024/04/01 01:04:25;;;;;;;40.67;24.80;;;14.50;99.90;;;;;;4982007;28;20482;-73
2024/04/01 01:06:51;;;;;;;42.03;23.93;;;14.40;99.90;;;;;;4987482;28;20473;-73
2024/04/01 01:09:18;;;;;;;29.33;21.70;;;14.40;99.90;;;;;;4995611;28;20810;-73
2024/04/01 01:11:44;;;;;;;34.90;23.17;;;14.40;99.90;;;;;;4975555;28;20470;-74
2024/04/01 01:14:11;;;;;;;34.67;23.00;;;14.30;99.90;;;;;;4976398;28;20471;-74
2024/04/01 01:16:37;;;;;;;30.40;22.40;;;14.30;99.90;;;;;;4975022;28;20486;-74
2024/04/01 01:19:07;;;;;;;36.43;26.27;;;14.30;99.90;;;;;;4976546;28;20471;-74
2024/04/01 01:21:33;;;;;;;32.63;24.17;;;14.30;99.90;;;;;;4976055;28;20474;-73
2024/04/01 01:24:02;;;;;;;26.17;20.47;;;14.20;99.90;;;;;;4976587;28;20961;-73
2024/04/01 01:26:28;;;;;;;33.60;22.10;;;14.20;99.90;;;;;;4975820;28;20969;-74
2024/04/01 01:28:58;;;;;;;38.17;22.57;;;14.20;99.90;;;;;;4976167;28;20541;-74
2024/04/01 01:31:24;;;;;;;26.63;19.83;;;14.20;99.90;;;;;;4975833;28;20479;-74
2024/04/01 01:33:51;;;;;;;29.93;20.93;;;14.30;99.90;;;;;;4976105;28;20475;-73
2024/04/01 01:36:16;;;;;;;27.03;20.43;;;14.30;99.90;;;;;;4976079;28;20996;-73
2024/04/01 01:38:43;;;;;;;25.50;20.83;;;14.30;99.90;;;;;;4975876;28;20454;-74
2024/04/01 01:41:11;;;;;;;30.60;20.43;;;14.20;99.90;;;;;;4976178;28;20856;-74
2024/04/01 01:43:38;;;;;;;24.43;20.07;;;14.20;99.90;;;;;;4975273;28;20467;-73
2024/04/01 01:46:04;;;;;;;21.37;18.93;;;14.30;99.90;;;;;;4976092;28;20479;-73
2024/04/01 01:48:31;;;;;;;36.50;22.73;;;14.20;99.90;;;;;;4975500;28;20467;-73
2024/04/01 01:50:56;;;;;;;34.70;23.23;;;14.20;99.90;;;;;;4976088;28;20470;-73
2024/04/01 01:53:24;;;;;;;33.13;22.07;;;14.20;99.90;;;;;;4975935;28;20473;-73
2024/04/01 01:55:50;;;;;;;28.60;21.83;;;14.20;99.90;;;;;;4975416;28;20469;-73
2024/04/01 01:58:18;;;;;;;27.97;21.83;;;14.20;99.90;;;;;;4975877;28;20475;-73
2024/04/01 02:00:44;;;;;;;29.57;19.93;;;14.20;99.90;;;;;;4974950;28;20474;-72
2024/04/01 02:03:11;;;;;;;25.80;19.60;;;14.20;99.90;;;;;;4975565;28;20474;-72
2024/04/01 02:05:41;;;;;;;23.47;19.37;;;14.20;99.90;;;;;;4975051;28;20475;-73
2024/04/01 02:08:08;;;;;;;31.33;19.17;;;14.30;99.90;;;;;;4975528;28;20471;-73
2024/04/01 02:10:35;;;;;;;30.47;21.00;;;14.30;99.90;;;;;;4975108;28;20472;-72
2024/04/01 02:13:04;;;;;;;26.20;19.00;;;14.30;99.90;;;;;;4975532;28;20542;-73
2024/04/01 02:15:32;;;;;;;26.50;21.10;;;14.30;99.90;;;;;;4974846;28;20813;-72
2024/04/01 02:17:59;;;;;;;33.10;20.43;;;14.30;99.90;;;;;;4975295;28;20470;-73
2024/04/01 02:20:26;;;;;;;23.77;18.30;;;14.30;99.90;;;;;;4975397;28;20538;-73
2024/04/01 02:22:53;;;;;;;37.93;21.40;;;14.40;99.90;;;;;;4974937;28;20469;-73
2024/04/01 02:25:19;;;;;;;25.30;19.37;;;14.40;99.90;;;;;;4975105;28;20471;-73
2024/04/01 02:27:46;;;;;;;23.90;18.50;;;14.40;99.90;;;;;;4974849;28;20481;-74
2024/04/01 02:30:12;;;;;;;24.30;19.13;;;14.40;99.90;;;;;;4975156;28;20987;-73
2024/04/01 02:32:40;;;;;;;29.67;19.80;;;14.40;99.90;;;;;;4974819;28;20466;-73
2024/04/01 02:35:06;;;;;;;26.60;17.80;;;14.40;99.90;;;;;;4975160;28;20462;-73
2024/04/01 02:37:33;;;;;;;27.97;20.47;;;14.40;99.90;;;;;;4974655;28;20466;-73
2024/04/01 02:39:59;;;;;;;26.63;18.40;;;14.40;99.90;;;;;;4975052;28;20956;-73
2024/04/01 02:42:26;;;;;;;26.30;17.13;;;14.40;99.90;;;;;;4975229;28;20467;-73
2024/04/01 02:44:52;;;;;;;23.90;18.03;;;14.40;99.90;;;;;;4974362;28;20467;-73
2024/04/01 02:47:19;;;;;;;31.97;20.63;;;14.40;99.90;;;;;;4977127;28;20481;-73
2024/04/01 02:49:46;;;;;;;23.20;17.77;;;14.40;99.90;;;;;;4974523;28;20478;-73
2024/04/01 02:52:13;;;;;;;24.93;17.13;;;14.40;99.90;;;;;;4975150;28;20490;-73
2024/04/01 02:54:39;;;;;;;25.83;18.30;;;14.40;99.90;;;;;;4973622;28;20478;-73
2024/04/01 02:57:06;;;;;;;21.87;18.00;;;14.40;99.90;;;;;;4974701;28;20488;-73
2024/04/01 02:59:32;;;;;;;28.13;18.13;;;14.40;99.90;;;;;;4974190;28;20961;-73
2024/04/01 03:01:59;;;;;;;28.07;16.97;;;14.30;99.90;;;;;;4974631;28;20533;-73
2024/04/01 03:04:26;;;;;;;30.40;18.63;;;14.30;99.90;;;;;;4974430;28;20479;-73
2024/04/01 03:06:55;;;;;;;25.83;18.00;;;14.30;99.90;;;;;;4974189;28;20472;-73
2024/04/01 03:09:22;;;;;;;26.93;17.00;;;14.30;99.90;;;;;;4974649;28;20486;-73
2024/04/01 03:11:49;;;;;;;26.37;18.07;;;14.30;99.90;;;;;;4974080;28;20961;-73
2024/04/01 03:14:15;;;;;;;24.73;19.00;;;14.30;99.90;;;;;;4974454;28;20470;-73
2024/04/01 03:16:51;;;;;;;24.03;17.13;;;14.30;99.90;;;;;;4974001;28;20466;-73
2024/04/01 03:19:17;;;;;;;28.40;19.93;;;14.30;99.90;;;;;;4974362;28;20575;-73
2024/04/01 03:21:43;;;;;;;23.37;17.87;;;14.30;99.90;;;;;;4974044;28;20483;-73
2024/04/01 03:24:11;;;;;;;25.03;17.47;;;14.20;99.90;;;;;;4974566;28;20459;-73
2024/04/01 03:26:38;;;;;;;23.33;16.57;;;14.20;99.90;;;;;;4973906;28;20471;-73
2024/04/01 03:29:04;;;;;;;21.77;16.83;;;14.10;99.90;;;;;;4974431;28;20478;-74
2024/04/01 03:31:31;;;;;;;22.00;18.00;;;14.10;99.90;;;;;;4974482;28;20463;-74
2024/04/01 03:33:57;;;;;;;25.07;18.47;;;14.10;99.90;;;;;;4974180;28;20459;-74
2024/04/01 03:36:24;;;;;;;25.40;19.20;;;14.10;99.90;;;;;;4974408;28;20470;-74
2024/04/01 03:38:51;;;;;;;28.30;18.47;;;14.00;99.90;;;;;;4973912;28;20478;-74
2024/04/01 03:41:19;;;;;;;35.33;20.30;;;14.00;99.90;;;;;;4974186;28;20478;-74
2024/04/01 03:43:46;;;;;;;24.83;17.47;;;14.00;99.90;;;;;;4973909;28;20529;-74
2024/04/01 03:46:12;;;;;;;24.43;17.40;;;14.00;99.90;;;;;;4974110;28;20467;-74
2024/04/01 03:48:39;;;;;;;26.57;21.10;;;14.00;99.90;;;;;;4973769;28;20827;-74
2024/04/01 03:51:05;;;;;;;32.90;17.37;;;13.90;99.90;;;;;;4974290;28;20475;-71
2024/04/01 03:53:32;;;;;;;22.33;17.37;;;13.80;99.90;;;;;;4974164;28;20471;-74
2024/04/01 03:55:58;;;;;;;26.17;17.17;;;13.80;99.90;;;;;;4973937;28;20482;-74
2024/04/01 03:58:26;;;;;;;33.90;20.80;;;13.70;99.90;;;;;;4974220;28;20467;-73
2024/04/01 04:00:52;;;;;;;29.70;19.13;;;13.70;99.90;;;;;;4973511;28;20969;-72
2024/04/01 04:03:19;;;;;;;23.50;17.73;;;13.60;99.90;;;;;;4974231;28;20467;-73
2024/04/01 04:05:45;;;;;;;28.60;19.50;;;13.60;99.90;;;;;;4973982;28;20482;-73
2024/04/01 04:08:12;;;;;;;24.90;18.93;;;13.60;99.90;;;;;;4977677;28;20467;-73
2024/04/01 04:10:37;;;;;;;21.30;17.33;;;13.60;99.90;;;;;;4977449;28;20474;-73
2024/04/01 04:13:05;;;;;;;26.60;17.10;;;13.60;99.90;;;;;;4977761;28;20465;-73
2024/04/01 04:15:32;;;;;;;29.73;18.33;;;13.60;99.90;;;;;;4977633;28;20474;-73
2024/04/01 04:17:59;;;;;;;28.73;18.50;;;13.50;99.90;;;;;;4977078;28;20462;-74
2024/04/01 04:20:25;;;;;;;36.70;19.60;;;13.40;99.90;;;;;;4977493;28;20479;-73
2024/04/01 04:22:52;;;;;;;24.93;18.07;;;13.40;99.90;;;;;;4976638;28;20465;-73
2024/04/01 04:25:18;;;;;;;26.73;18.75;;;13.30;99.90;;;;;;4977605;28;20490;-73
2024/04/01 04:27:45;;;;;;;27.70;19.60;;;13.30;99.90;;;;;;4976878;28;20262;-72
2024/04/01 04:30:13;;;;;;;29.75;19.65;;;13.30;99.90;;;;;;4977447;28;20219;-74
2024/04/01 04:32:42;;;;;;;30.75;20.10;;;13.30;99.90;;;;;;4977042;28;20681;-73
2024/04/01 04:35:09;;;;;;;25.35;19.65;;;13.20;99.90;;;;;;4977234;28;20227;-72
2024/04/01 04:37:36;;;;;;;32.92;19.65;;;13.30;99.90;;;;;;4977242;28;20223;-72
2024/04/01 04:40:03;;;;;;;28.73;19.70;;;13.20;99.90;;;;;;4976927;28;20219;-72
2024/04/01 04:42:33;;;;;;;31.60;18.83;;;13.20;99.90;;;;;;4977207;28;20241;-72
2024/04/01 04:44:59;;;;;;;23.77;17.98;;;13.20;99.90;;;;;;4976749;28;20466;-73
2024/04/01 04:47:26;;;;;;;29.77;18.60;;;13.20;99.90;;;;;;4976977;28;20243;-73
2024/04/01 04:49:53;;;;;;;37.47;20.58;;;13.20;99.90;;;;;;4976610;28;20470;-74
2024/04/01 04:52:20;;;;;;;27.65;18.92;;;13.20;99.90;;;;;;4977168;28;20764;-74
2024/04/01 04:54:46;;;;;;;29.00;18.20;;;13.30;99.90;;;;;;4976380;28;20223;-73
2024/04/01 04:57:13;;;;;;;36.10;19.40;;;13.30;99.90;;;;;;4976977;28;20481;-74
2024/04/01 04:59:39;;;;;;;24.63;18.40;;;13.30;99.90;;;;;;4976950;28;20471;-72
2024/04/01 05:02:07;;;;;;;25.87;18.53;;;13.40;99.90;;;;;;4976537;28;20470;-73
2024/04/01 05:04:34;;;;;;;26.53;17.57;;;13.40;99.90;;;;;;4976656;28;20466;-73
2024/04/01 05:07:03;;;;;;;36.88;18.90;;;13.50;99.90;;;;;;4976245;28;21405;-74
2024/04/01 05:09:29;;;;;;;23.55;17.35;;;13.50;99.90;;;;;;4976674;28;20228;-73
2024/04/01 05:11:56;;;;;;;32.20;18.00;;;13.60;99.90;;;;;;4975650;28;20223;-72
2024/04/01 05:14:23;;;;;;;28.63;19.00;;;13.70;99.90;;;;;;4976600;28;20223;-75
2024/04/01 05:16:51;;;;;;;32.50;19.30;;;13.70;99.90;;;;;;4975930;28;20477;-73
2024/04/01 05:19:17;;;;;;;33.33;17.77;;;13.80;99.90;;;;;;4975948;28;20968;-74
2024/04/01 05:21:44;;;;;;;39.47;20.10;;;13.80;99.90;;;;;;4976008;28;20562;-73
2024/04/01 05:24:12;;;;;;;36.28;20.27;;;13.90;99.90;;;;;;4976419;28;20478;-73
2024/04/01 05:26:39;;;;;;;47.07;19.27;;;13.90;99.90;;;;;;4976081;28;20310;-73
2024/04/01 05:29:05;;;;;;;38.17;20.20;;;14.00;99.90;;;;;;4975855;28;20546;-73
2024/04/01 05:31:32;;;;;;;38.50;19.90;;;13.90;99.90;;;;;;4976471;28;20239;-73
2024/04/01 05:33:57;;;;;;;37.03;18.87;;;14.00;99.90;;;;;;4976009;28;20462;-74
2024/04/01 05:36:26;;;;;;;30.70;18.17;;;14.00;99.90;;;;;;4976602;28;20473;-73
2024/04/01 05:38:52;;;;;;;29.87;17.70;;;14.00;99.90;;;;;;4975564;28;20502;-73
2024/04/01 05:41:20;;;;;;;49.03;20.10;;;14.00;99.90;;;;;;4976249;28;20992;-73
2024/04/01 05:43:46;;;;;;;36.80;18.20;;;14.00;99.90;;;;;;4975538;28;20467;-73
2024/04/01 05:46:15;;;;;;;29.42;18.25;;;14.00;99.90;;;;;;4976118;28;20461;-73
2024/04/01 05:48:41;;;;;;;30.30;17.33;;;14.00;99.90;;;;;;4976173;28;20234;-73
2024/04/01 05:51:09;;;;;;;35.38;19.05;;;14.00;99.90;;;;;;4975334;28;20462;-73
2024/04/01 05:53:36;;;;;;;36.43;19.33;;;14.10;99.90;;;;;;4975977;28;20227;-73
2024/04/01 05:56:04;;;;;;;35.37;19.10;;;14.10;99.90;;;;;;4975530;28;20467;-73
2024/04/01 05:58:32;;;;;;;36.33;17.53;;;14.10;99.90;;;;;;4975688;28;20471;-73
2024/04/01 06:01:00;;;;;;;27.73;17.07;;;14.10;99.90;;;;;;4975350;28;20485;-73
2024/04/01 06:03:26;;;;;;;35.20;19.30;;;14.20;99.90;;;;;;4975888;28;20502;-73
2024/04/01 06:05:53;;;;;;;32.07;17.83;;;14.20;99.90;;;;;;4975027;28;20815;-73
2024/04/01 06:08:19;;;;;;;33.43;17.47;;;14.20;99.90;;;;;;4975757;28;20495;-73
2024/04/01 06:10:46;;;;;;;35.63;17.93;;;14.30;99.90;;;;;;4975217;28;20494;-73
2024/04/01 06:13:13;;;;;;;26.73;17.27;;;14.30;99.90;;;;;;4975574;28;20835;-74
2024/04/01 06:15:41;;;;;;;37.70;17.47;;;14.30;99.90;;;;;;4975525;28;20481;-74
2024/04/01 06:18:07;;;;;;;33.67;18.40;;;14.40;99.90;;;;;;4974855;28;20478;-74
2024/04/01 06:20:34;;;;;;;36.30;18.90;;;14.50;99.90;;;;;;4975265;28;20984;-74
2024/04/01 06:23:00;;;;;;;36.43;18.10;;;14.60;99.90;;;;;;4974959;28;20957;-74
2024/04/01 06:25:31;;;;;;;32.53;17.13;;;14.60;99.90;;;;;;4975237;28;20845;-74
2024/04/01 06:27:57;;;;;;;36.43;16.87;;;14.70;99.90;;;;;;4974700;28;20479;-74
2024/04/01 06:30:23;;;;;;;43.03;17.10;;;14.80;99.90;;;;;;4975172;28;20492;-73
2024/04/01 06:32:51;;;;;;;30.07;17.23;;;14.80;99.90;;;;;;4974676;28;20481;-74
2024/04/01 06:35:21;;;;;;;32.43;17.63;;;14.80;99.90;;;;;;4975192;28;20903;-74
2024/04/01 06:37:46;;;;;;;34.93;17.93;;;14.90;99.90;;;;;;4974923;28;20479;-74
2024/04/01 06:40:14;;;;;;;37.90;17.70;;;14.90;99.90;;;;;;4974776;28;20937;-75
2024/04/01 06:42:39;;;;;;;43.43;19.20;;;15.00;99.90;;;;;;4974879;28;20470;-74
2024/04/01 06:45:07;;;;;;;32.53;16.97;;;15.00;99.90;;;;;;4974477;28;20477;-72
2024/04/01 06:47:33;;;;;;;35.17;16.10;;;15.10;99.90;;;;;;4974808;28;20482;-73
2024/04/01 06:50:05;;;;;;;36.43;17.87;;;15.10;99.90;;;;;;4974537;28;20810;-72
2024/04/01 06:52:31;;;;;;;31.50;16.27;;;15.20;99.90;;;;;;4974958;28;20549;-74
2024/04/01 06:54:58;;;;;;;37.90;18.50;;;15.30;99.90;;;;;;4974389;28;20579;-73
2024/04/01 06:57:24;;;;;;;38.80;17.43;;;15.30;99.90;;;;;;4974951;28;20467;-73
2024/04/01 06:59:51;;;;;;;43.77;15.80;;;15.30;99.90;;;;;;4974362;28;20477;-73
2024/04/01 07:02:16;;;;;;;35.70;16.20;;;15.40;99.90;;;;;;4974638;28;20545;-74
2024/04/01 07:04:43;;;;;;;37.10;16.87;;;15.50;99.90;;;;;;4974706;28;20554;-75
2024/04/01 07:07:11;;;;;;;36.70;16.50;;;15.50;99.90;;;;;;4974095;28;20482;-73
2024/04/01 07:09:38;;;;;;;46.80;17.37;;;15.50;99.90;;;;;;4974723;28;20874;-74
2024/04/01 07:12:04;;;;;;;37.27;15.97;;;15.50;99.90;;;;;;4974354;28;20498;-73
2024/04/01 07:14:31;;;;;;;40.50;15.40;;;15.60;99.90;;;;;;4974401;28;20538;-74
2024/04/01 07:16:57;;;;;;;37.60;14.00;;;15.60;99.90;;;;;;4974019;28;20478;-74
2024/04/01 07:19:24;;;;;;;27.73;12.53;;;15.70;99.90;;;;;;4974747;28;20469;-74
2024/04/01 07:21:50;;;;;;;53.60;16.20;;;15.80;99.90;;;;;;4974499;28;20470;-74
2024/04/01 07:24:18;;;;;;;33.03;15.57;;;15.80;99.90;;;;;;4974283;28;20451;-74
2024/04/01 07:26:44;;;;;;;44.57;15.53;;;15.80;99.90;;;;;;4974450;28;20479;-74
2024/04/01 07:29:11;;;;;;;41.20;15.90;;;15.90;99.90;;;;;;4973852;28;20524;-74
2024/04/01 07:31:37;;;;;;;33.90;15.03;;;15.90;99.90;;;;;;4974471;28;20466;-74
2024/04/01 07:34:04;;;;;;;44.23;15.27;;;16.00;99.90;;;;;;4974064;28;20476;-74
2024/04/01 07:36:29;;;;;;;48.17;16.07;;;16.00;99.90;;;;;;4974213;28;20471;-74
2024/04/01 07:38:56;;;;;;;46.57;12.87;;;16.00;99.90;;;;;;4974003;28;20802;-74
2024/04/01 07:41:25;;;;;;;40.40;16.83;;;16.00;99.90;;;;;;4975972;28;20227;-74
2024/04/01 07:43:52;;;;;;;42.30;15.40;;;16.00;99.90;;;;;;4978174;28;20549;-74
2024/04/01 07:46:19;;;;;;;36.73;14.07;;;16.00;99.90;;;;;;4977911;28;20458;-74
2024/04/01 07:48:46;;;;;;;25.73;12.83;;;16.10;99.90;;;;;;4978244;28;20489;-72
2024/04/01 07:51:12;;;;;;;45.13;15.53;;;16.10;99.90;;;;;;4977695;28;20812;-73
2024/04/01 07:53:39;;;;;;;37.90;14.63;;;16.10;99.90;;;;;;4978288;28;20466;-73
2024/04/01 07:56:05;;;;;;;39.00;15.40;;;16.10;99.90;;;;;;4977581;28;20467;-74
2024/04/01 07:58:33;;;;;;;43.80;16.00;;;16.20;99.90;;;;;;4978033;28;20466;-74
2024/04/01 08:01:04;;;;;;;44.20;16.17;;;16.30;99.90;;;;;;4977412;28;20490;-74
2024/04/01 08:03:31;;;;;;;48.87;15.47;;;16.30;99.90;;;;;;4977892;28;20466;-74
2024/04/01 08:05:57;;;;;;;40.03;15.60;;;16.40;99.90;;;;;;4977243;28;20494;-74
2024/04/01 08:08:24;;;;;;;32.93;13.23;;;16.40;99.90;;;;;;4977868;28;20941;-73
2024/04/01 08:10:50;;;;;;;31.93;13.70;;;16.40;99.90;;;;;;4977712;28;20816;-73
2024/04/01 08:13:21;;;;;;;37.53;14.10;;;16.60;99.90;;;;;;4977359;28;20450;-73
2024/04/01 08:15:58;;;;;;;37.27;14.80;;;16.60;99.90;;;;;;4977516;28;20525;-72
2024/04/01 08:18:25;;;;;;;35.87;14.80;;;16.60;99.90;;;;;;4977261;28;20482;-73
2024/04/01 08:20:51;;;;;;;49.00;16.40;;;16.70;99.90;;;;;;4977400;28;20471;-73
2024/04/01 08:23:18;;;;;;;29.57;12.20;;;16.70;99.90;;;;;;4977198;28;20782;-74
2024/04/01 08:25:44;;;;;;;34.17;14.50;;;16.80;99.90;;;;;;4977393;28;20477;-74
2024/04/01 08:28:11;;;;;;;41.27;15.00;;;16.90;99.90;;;;;;4977035;28;20981;-73
2024/04/01 08:30:37;;;;;;;32.67;12.00;;;16.90;99.90;;;;;;4977368;28;20466;-73
2024/04/01 08:33:05;;;;;;;36.37;14.00;;;17.00;99.90;;;;;;4976786;28;20470;-74
2024/04/01 08:35:32;;;;;;;40.37;15.70;;;17.10;99.90;;;;;;4977410;28;20467;-74
2024/04/01 08:37:58;;;;;;;44.20;14.10;;;17.10;99.90;;;;;;4977173;28;20476;-74
2024/04/01 08:40:25;;;;;;;37.37;13.70;;;17.10;99.90;;;;;;4976765;28;20454;-74
2024/04/01 08:42:59;;;;;;;37.83;12.33;;;17.20;99.90;;;;;;4977120;28;20542;-74
2024/04/01 08:45:25;;;;;;;26.77;11.53;;;17.20;99.90;;;;;;4976636;28;20461;-74
2024/04/01 08:47:59;;;;;;;33.33;12.63;;;17.30;99.90;;;;;;4977088;28;20494;-74
2024/04/01 08:50:35;;;;;;;29.33;11.20;;;17.30;99.90;;;;;;4976631;28;20782;-74
2024/04/01 08:53:09;;;;;;;31.93;12.93;;;17.40;99.90;;;;;;4975488;28;20478;-74
2024/04/01 08:55:35;;;;;;;24.80;11.30;;;17.50;99.90;;;;;;4977092;28;20478;-74
2024/04/01 08:58:02;;;;;;;29.00;12.77;;;17.60;99.90;;;;;;4976857;28;20866;-74
2024/04/01 09:00:28;;;;;;;31.27;11.50;;;17.70;99.90;;;;;;4976563;28;20470;-74
2024/04/01 09:02:55;;;;;;;27.90;10.37;;;17.80;99.90;;;;;;4976800;28;20815;-74
2024/04/01 09:05:21;;;;;;;24.90;10.63;;;17.90;99.90;;;;;;4976135;28;20474;-74
2024/04/01 09:07:50;;;;;;;37.03;12.17;;;18.00;99.90;;;;;;4976738;28;20499;-74
2024/04/01 09:10:19;;;;;;;34.73;12.00;;;18.00;99.90;;;;;;4976236;28;20991;-74
2024/04/01 09:12:46;;;;;;;31.10;11.40;;;18.10;99.90;;;;;;4976644;28;20573;-74
2024/04/01 09:15:12;;;;;;;28.60;11.70;;;18.20;99.90;;;;;;4976040;28;20868;-74
2024/04/01 09:17:39;;;;;;;32.97;11.77;;;18.20;99.90;;;;;;4976425;28;20470;-74
2024/04/01 09:20:06;;;;;;;39.00;11.53;;;18.30;99.90;;;;;;4976119;28;20482;-74
2024/04/01 09:22:33;;;;;;;24.97;9.50;;;18.30;99.90;;;;;;4976589;28;20479;-74
2024/04/01 09:25:00;;;;;;;31.10;11.00;;;18.40;99.90;;;;;;4976279;28;20475;-74
2024/04/01 09:27:30;;;;;;;27.77;9.70;;;18.50;99.90;;;;;;4975883;28;20888;-74
2024/04/01 09:29:56;;;;;;;29.30;8.30;;;18.50;99.90;;;;;;4976396;28;20812;-74
2024/04/01 09:32:23;;;;;;;21.10;8.83;;;18.50;99.90;;;;;;4975845;28;20473;-74
2024/04/01 09:34:49;;;;;;;25.23;10.30;;;18.40;99.90;;;;;;4976364;28;20490;-74
2024/04/01 09:37:16;;;;;;;18.50;7.60;;;18.40;99.90;;;;;;4975702;28;20502;-74
2024/04/01 09:39:45;;;;;;;26.60;8.80;;;18.50;99.90;;;;;;4976099;28;20549;-73
2024/04/01 09:42:14;;;;;;;25.20;9.50;;;18.50;99.90;;;;;;4975758;28;20470;-74
2024/04/01 09:44:41;;;;;;;22.67;8.67;;;18.50;99.90;;;;;;4976049;28;20466;-74
2024/04/01 09:47:08;;;;;;;17.60;8.63;;;18.60;99.90;;;;;;4975841;28;20471;-74
2024/04/01 09:49:35;;;;;;;23.07;8.20;;;18.60;99.90;;;;;;4975792;28;20470;-75
2024/04/01 09:52:03;;;;;;;23.60;7.97;;;18.60;99.90;;;;;;4976183;28;20478;-75
2024/04/01 09:54:32;;;;;;;21.23;8.07;;;18.70;99.90;;;;;;4975425;28;20817;-75
2024/04/01 09:57:36;;;;;;;22.67;8.97;;;18.70;99.90;;;;;;4976057;28;20470;-74
2024/04/01 10:00:14;;;;;;;26.40;8.17;;;18.70;99.90;;;;;;4970477;28;20466;-73
2024/04/01 10:03:14;;;;;;;17.67;6.77;;;18.70;99.90;;;;;;4975707;28;20470;-73
2024/04/01 10:06:46;;;;;;;17.67;7.20;;;18.80;99.90;;;;;;4950645;28;20462;-74
2024/04/01 10:10:10;;;;;;;20.60;8.97;;;18.90;99.90;;;;;;4975032;28;20478;-75
2024/04/01 10:13:08;;;;;;;17.50;6.20;;;19.00;99.90;;;;;;4975607;28;20459;-73
2024/04/01 10:16:00;;;;;;;16.27;7.40;;;19.10;99.90;;;;;;4975545;28;20459;-74
2024/04/01 10:18:51;;;;;;;23.20;7.70;;;19.30;99.90;;;;;;4975228;28;20483;-74
2024/04/01 10:21:41;;;;;;;15.50;6.73;;;19.40;99.90;;;;;;4972628;28;20971;-74
2024/04/01 10:24:48;;;;;;;27.63;6.90;;;19.60;99.90;;;;;;4975380;28;20477;-72
2024/04/01 10:27:51;;;;;;;12.20;6.03;;;19.60;99.40;;;;;;4915873;29;20473;-75
2024/04/01 10:30:54;;;;;;;12.63;5.00;;;19.80;98.90;;;;;;4974887;28;20999;-74
2024/04/01 10:34:00;;;;;;;14.70;5.40;;;19.80;97.90;;;;;;4974800;28;20462;-73
2024/04/01 10:36:46;;;;;;;18.40;6.23;;;19.90;97.50;;;;;;4974864;28;21464;-73
2024/04/01 10:39:49;;;;;;;17.70;5.83;;;20.00;97.00;;;;;;4974732;28;20471;-74
2024/04/01 10:42:35;;;;;;;11.73;4.87;;;20.10;96.70;;;;;;4974582;28;20483;-74
2024/04/01 10:45:36;;;;;;;9.70;4.90;;;20.20;96.50;;;;;;4975016;28;20477;-73
2024/04/01 10:48:17;;;;;;;15.53;5.03;;;20.40;96.20;;;;;;4973610;28;20497;-74
2024/04/01 10:51:16;;;;;;;12.30;5.90;;;20.60;95.70;;;;;;4975003;28;20463;-74
2024/04/01 10:54:01;;;;;;;10.73;5.40;;;20.70;94.90;;;;;;4974947;28;20461;-74
2024/04/01 10:57:01;;;;;;;13.87;4.67;;;20.80;94.40;;;;;;4974335;28;20471;-73
2024/04/01 10:59:52;;;;;;;13.23;3.70;;;20.80;93.50;;;;;;4974284;28;20459;-73
2024/04/01 11:02:47;;;;;;;11.00;5.30;;;20.90;93.70;;;;;;4974542;28;20471;-73
2024/04/01 11:05:33;;;;;;;14.20;5.03;;;21.00;93.70;;;;;;4972006;28;20463;-73
2024/04/01 11:08:18;;;;;;;10.07;4.00;;;21.10;93.70;;;;;;4974675;28;20467;-73
2024/04/01 11:10:55;;;;;;;13.33;4.20;;;21.10;93.50;;;;;;4975117;28;20546;-74
2024/04/01 11:13:23;;;;;;;17.30;5.53;;;21.20;93.40;;;;;;4975062;28;20462;-73
2024/04/01 11:15:55;;;;;;;10.97;6.23;;;21.20;93.30;;;;;;4973121;28;20463;-73
2024/04/01 11:18:36;;;;;;;14.20;5.47;;;21.30;93.30;;;;;;4974531;28;20810;-73
2024/04/01 11:21:11;;;;;;;14.47;4.43;;;21.40;93.40;;;;;;4974493;28;20461;-73
2024/04/01 11:23:55;;;;;;;8.60;3.70;;;21.40;93.40;;;;;;4974402;28;20478;-74
2024/04/01 11:26:50;;;;;;;13.43;5.77;;;21.50;93.90;;;;;;4974341;28;20474;-73
2024/04/01 11:29:39;;;;;;;12.97;4.80;;;21.60;93.70;;;;;;4974260;28;20470;-73
2024/04/01 11:32:12;;;;;;;15.30;5.10;;;21.60;93.50;;;;;;4974287;28;20518;-75
2024/04/01 11:34:48;;;;;;;20.03;5.67;;;21.60;93.40;;;;;;4973922;28;20877;-73
2024/04/01 11:37:24;;;;;;;12.63;5.07;;;21.70;93.50;;;;;;4973753;28;20486;-73
2024/04/01 11:39:59;;;;;;;10.23;4.17;;;21.70;93.40;;;;;;4974347;28;20968;-74
2024/04/01 11:42:30;;;;;;;11.27;4.60;;;21.70;93.50;;;;;;4973958;28;20545;-74
2024/04/01 11:44:58;;;;;;;10.20;4.70;;;21.70;93.30;;;;;;4974089;28;20567;-73
2024/04/01 11:47:26;;;;;;;18.03;5.47;;;21.80;93.20;;;;;;4973716;28;20928;-74
2024/04/01 11:49:52;;;;;;;14.30;4.70;;;21.80;92.90;;;;;;4974350;28;20820;-74
2024/04/01 11:52:21;;;;;;;12.33;3.80;;;21.80;92.10;;;;;;4973872;28;20481;-74
2024/04/01 11:54:47;;;;;;;9.53;4.00;;;21.80;91.80;;;;;;4974316;28;20845;-74
2024/04/01 11:57:23;;;;;;;19.53;4.60;;;21.90;91.40;;;;;;4973730;28;20467;-74
2024/04/01 11:59:49;;;;;;;8.30;3.87;;;21.90;90.90;;;;;;4974034;28;20476;-74
2024/04/01 12:02:18;;;;;;;10.40;3.90;;;21.90;90.20;;;;;;4973349;28;20475;-74
2024/04/01 12:04:44;;;;;;;11.47;4.37;;;21.90;90.10;;;;;;4973963;28;20486;-74
2024/04/01 12:07:12;;;;;;;13.50;4.50;;;22.00;90.00;;;;;;4973425;28;20474;-74
2024/04/01 12:09:40;;;;;;;8.47;4.53;;;22.00;90.20;;;;;;4974182;28;20856;-74
2024/04/01 12:12:10;;;;;;;11.00;3.20;;;22.00;89.80;;;;;;4973573;28;20481;-74
2024/04/01 12:14:38;;;;;;;11.03;4.10;;;22.00;89.80;;;;;;4973908;28;20471;-74
2024/04/01 12:17:08;;;;;;;11.10;3.90;;;22.00;89.60;;;;;;4973411;28;20475;-74
2024/04/01 12:19:34;;;;;;;11.47;3.63;;;22.00;89.60;;;;;;4974080;28;20469;-74
2024/04/01 12:22:05;;;;;;;13.77;3.93;;;22.10;89.50;;;;;;4973986;28;20478;-74
2024/04/01 12:24:32;;;;;;;11.10;4.93;;;22.00;89.50;;;;;;4973416;28;20468;-74
2024/04/01 12:27:03;;;;;;;14.27;4.77;;;22.00;89.50;;;;;;4974802;28;20475;-74
2024/04/01 12:29:31;;;;;;;11.27;4.43;;;22.00;89.60;;;;;;4976970;28;20530;-74
2024/04/01 12:31:59;;;;;;;8.43;3.33;;;21.90;89.90;;;;;;4977294;28;20455;-74
2024/04/01 12:34:25;;;;;;;12.57;3.77;;;22.00;90.00;;;;;;4977421;28;20475;-75
2024/04/01 12:36:54;;;;;;;15.83;5.30;;;21.90;89.90;;;;;;4977410;28;20525;-73
2024/04/01 12:39:21;;;;;;;9.70;3.93;;;21.90;90.00;;;;;;4976792;28;20486;-74
2024/04/01 12:41:50;;;;;;;11.73;4.70;;;21.90;90.30;;;;;;4977469;28;20468;-73
2024/04/01 12:44:19;;;;;;;10.17;4.27;;;21.90;90.50;;;;;;4976373;28;20840;-74